Time;durP1;ratioP1;P1;durP2;ratioP2;P2;SDS_P1;SDS_P2;PMS_P1;PMS_P2;Temp;Humidity;BMP_temperature;BMP_pressure;BME280_temperature;BME280_humidity;BME280_pressure;Samples;Min_cycle;Max_cycle;Signal;HPM_P1;HPM_P2
2021/07/29 00:02:27;;;;;;;7.53;3.80;;;16.70;99.90;;;;;;5031926;28;20394;-55
2021/07/29 00:04:52;;;;;;;9.43;4.20;;;16.70;99.90;;;;;;5030764;28;20382;-55
2021/07/29 00:07:18;;;;;;;8.32;4.10;;;16.60;99.90;;;;;;5031740;28;20738;-57
2021/07/29 00:09:47;;;;;;;8.73;4.30;;;16.40;99.90;;;;;;5030886;28;20875;-57
2021/07/29 00:12:14;;;;;;;9.25;4.28;;;16.30;99.90;;;;;;5031693;28;20474;-57
2021/07/29 00:14:47;;;;;;;8.95;4.22;;;16.30;99.90;;;;;;5030594;28;20414;-56
2021/07/29 00:17:27;;;;;;;9.50;5.10;;;16.30;99.90;;;;;;5032015;28;20383;-57
2021/07/29 00:19:52;;;;;;;8.63;4.07;;;16.10;99.90;;;;;;5059103;28;20391;-57
2021/07/29 00:22:18;;;;;;;8.40;4.40;;;16.20;99.90;;;;;;5030667;28;20502;-57
2021/07/29 00:24:43;;;;;;;7.50;4.40;;;16.20;99.90;;;;;;5030745;28;20380;-56
2021/07/29 00:27:09;;;;;;;8.60;4.50;;;16.00;99.90;;;;;;5031669;28;20379;-54
2021/07/29 00:29:35;;;;;;;9.25;4.60;;;16.10;99.90;;;;;;5031091;28;20391;-55
2021/07/29 00:32:00;;;;;;;11.23;5.03;;;16.00;99.90;;;;;;5030594;28;20510;-54
2021/07/29 00:34:26;;;;;;;8.20;4.60;;;16.00;99.90;;;;;;5031143;28;20391;-55
2021/07/29 00:36:52;;;;;;;7.85;4.30;;;16.00;99.90;;;;;;5030067;28;20411;-55
2021/07/29 00:39:17;;;;;;;7.63;4.20;;;16.00;99.90;;;;;;5031080;28;20379;-54
2021/07/29 00:41:43;;;;;;;10.87;4.90;;;16.00;99.90;;;;;;5030462;28;20384;-55
2021/07/29 00:44:08;;;;;;;8.53;4.50;;;16.00;99.90;;;;;;5031114;28;20486;-55
2021/07/29 00:46:34;;;;;;;8.50;4.50;;;16.00;99.90;;;;;;5031120;28;20440;-54
2021/07/29 00:49:01;;;;;;;10.80;4.97;;;15.90;99.90;;;;;;5030399;28;20690;-55
2021/07/29 00:51:27;;;;;;;8.57;4.53;;;16.00;99.90;;;;;;5030963;28;20423;-55
2021/07/29 00:53:53;;;;;;;8.80;4.30;;;16.00;99.90;;;;;;5029768;28;20411;-55
2021/07/29 00:56:19;;;;;;;9.43;4.00;;;16.00;99.90;;;;;;5030879;28;20908;-55
2021/07/29 00:58:45;;;;;;;7.90;4.13;;;16.00;99.90;;;;;;5028845;28;20545;-55
2021/07/29 01:01:10;;;;;;;8.10;4.30;;;16.00;99.90;;;;;;5030780;28;20920;-55
2021/07/29 01:03:36;;;;;;;10.60;4.40;;;16.00;99.90;;;;;;5030582;28;20764;-54
2021/07/29 01:06:02;;;;;;;7.85;4.07;;;16.00;99.90;;;;;;5030172;28;20808;-55
2021/07/29 01:08:27;;;;;;;9.25;4.43;;;16.10;99.90;;;;;;5030788;28;20424;-54
2021/07/29 01:10:53;;;;;;;7.07;3.60;;;16.00;99.90;;;;;;5029735;28;20429;-55
2021/07/29 01:13:18;;;;;;;7.45;4.00;;;15.90;99.90;;;;;;5030371;28;20376;-55
2021/07/29 01:15:44;;;;;;;9.20;4.20;;;15.80;99.90;;;;;;5029682;28;20426;-55
2021/07/29 01:18:10;;;;;;;9.70;4.40;;;15.90;99.90;;;;;;5030642;28;20388;-55
2021/07/29 01:20:36;;;;;;;9.20;4.10;;;15.80;99.90;;;;;;5030152;28;20387;-55
2021/07/29 01:23:02;;;;;;;8.20;4.10;;;15.80;99.90;;;;;;5029419;28;20398;-55
2021/07/29 01:25:27;;;;;;;8.18;3.90;;;15.80;99.90;;;;;;5030398;28;20855;-55
2021/07/29 01:27:53;;;;;;;7.70;3.57;;;15.70;99.90;;;;;;5029251;28;20406;-55
2021/07/29 01:30:19;;;;;;;9.37;3.90;;;15.50;99.90;;;;;;5029033;28;20410;-55
2021/07/29 01:32:44;;;;;;;7.78;3.80;;;15.60;99.90;;;;;;5028431;28;20876;-55
2021/07/29 01:35:10;;;;;;;9.20;4.20;;;15.60;99.90;;;;;;5030035;28;20411;-55
2021/07/29 01:37:42;;;;;;;7.53;4.30;;;15.60;99.90;;;;;;5030437;28;20930;-56
2021/07/29 01:40:09;;;;;;;9.82;4.22;;;15.60;99.90;;;;;;5030415;28;20422;-56
2021/07/29 01:42:35;;;;;;;7.18;4.13;;;15.60;99.90;;;;;;5029996;28;20383;-55
2021/07/29 01:45:02;;;;;;;8.35;4.30;;;15.60;99.90;;;;;;5029400;28;20387;-55
2021/07/29 01:47:28;;;;;;;10.02;4.30;;;15.50;99.90;;;;;;5029727;28;20375;-55
2021/07/29 01:49:53;;;;;;;8.30;4.07;;;15.50;99.90;;;;;;5029199;28;20387;-56
2021/07/29 01:52:19;;;;;;;7.87;4.00;;;15.50;99.90;;;;;;5029890;28;20441;-56
2021/07/29 01:54:45;;;;;;;7.72;4.30;;;15.50;99.90;;;;;;5028878;28;20497;-55
2021/07/29 01:57:12;;;;;;;9.40;4.50;;;15.60;99.90;;;;;;5029804;28;20402;-55
2021/07/29 01:59:38;;;;;;;7.30;4.00;;;15.50;99.90;;;;;;5029861;28;20383;-56
2021/07/29 02:02:05;;;;;;;9.47;4.63;;;15.50;99.90;;;;;;5029117;28;20382;-55
2021/07/29 02:04:30;;;;;;;9.55;4.00;;;15.50;99.90;;;;;;5029433;28;20421;-55
2021/07/29 02:06:56;;;;;;;9.10;4.43;;;15.50;99.90;;;;;;5029243;28;20841;-55
2021/07/29 02:09:22;;;;;;;9.35;4.50;;;15.40;99.90;;;;;;5029368;28;20426;-55
2021/07/29 02:11:52;;;;;;;8.83;4.80;;;15.40;99.90;;;;;;5028718;28;20387;-55
2021/07/29 02:14:21;;;;;;;7.60;3.72;;;15.50;99.90;;;;;;5029759;28;20376;-55
2021/07/29 02:16:48;;;;;;;9.57;4.00;;;15.50;99.90;;;;;;5028698;28;20894;-55
2021/07/29 02:19:13;;;;;;;7.80;3.90;;;15.50;99.90;;;;;;5029584;28;20414;-55
2021/07/29 02:21:39;;;;;;;7.90;4.10;;;15.50;99.90;;;;;;5029560;28;20387;-54
2021/07/29 02:24:05;;;;;;;7.28;3.90;;;15.40;99.90;;;;;;5029232;28;20394;-55
2021/07/29 02:26:31;;;;;;;8.57;4.00;;;15.40;99.90;;;;;;5029050;28;20396;-55
2021/07/29 02:28:56;;;;;;;8.48;4.03;;;15.40;99.90;;;;;;5028676;28;20375;-55
2021/07/29 02:31:22;;;;;;;8.43;4.00;;;15.50;99.90;;;;;;5029287;28;20775;-55
2021/07/29 02:33:47;;;;;;;8.87;4.20;;;15.40;99.90;;;;;;5028513;28;20406;-55
2021/07/29 02:36:14;;;;;;;6.45;3.50;;;15.40;99.90;;;;;;5028223;28;20474;-56
2021/07/29 02:38:40;;;;;;;9.20;4.25;;;15.30;99.90;;;;;;5028973;28;20458;-54
2021/07/29 02:41:06;;;;;;;8.70;4.18;;;15.30;99.90;;;;;;5029346;28;20387;-55
2021/07/29 02:43:31;;;;;;;8.07;4.10;;;15.20;99.90;;;;;;5028763;28;20754;-56
2021/07/29 02:45:57;;;;;;;8.00;4.27;;;15.30;99.90;;;;;;5032128;28;20383;-55
2021/07/29 02:48:23;;;;;;;8.50;4.20;;;15.20;99.90;;;;;;5033247;28;20437;-55
2021/07/29 02:50:55;;;;;;;8.37;4.33;;;15.10;99.90;;;;;;5032373;28;20380;-55
2021/07/29 02:53:21;;;;;;;11.10;4.53;;;15.10;99.90;;;;;;5032977;28;20498;-55
2021/07/29 02:55:47;;;;;;;9.52;3.95;;;15.10;99.90;;;;;;5032224;28;20414;-55
2021/07/29 02:58:13;;;;;;;9.65;4.30;;;15.20;99.90;;;;;;5034857;28;20394;-56
2021/07/29 03:00:38;;;;;;;9.27;4.57;;;15.10;99.90;;;;;;5052939;28;20400;-56
2021/07/29 03:03:04;;;;;;;8.67;4.30;;;15.20;99.90;;;;;;5052094;28;20404;-55
2021/07/29 03:05:30;;;;;;;9.32;4.53;;;15.20;99.90;;;;;;5052771;28;20743;-55
2021/07/29 03:07:55;;;;;;;11.73;5.50;;;15.20;99.90;;;;;;5052207;28;20913;-56
2021/07/29 03:10:21;;;;;;;9.80;4.60;;;15.20;99.90;;;;;;5052709;28;20381;-55
2021/07/29 03:12:47;;;;;;;13.93;4.35;;;15.20;99.90;;;;;;5051870;28;20807;-55
2021/07/29 03:15:12;;;;;;;9.30;4.10;;;15.20;99.90;;;;;;5051261;28;20454;-55
2021/07/29 03:17:38;;;;;;;8.40;4.78;;;15.20;99.90;;;;;;5052469;28;20412;-55
2021/07/29 03:20:04;;;;;;;9.23;4.50;;;15.20;99.90;;;;;;5051742;28;20581;-55
2021/07/29 03:22:30;;;;;;;11.75;5.25;;;15.20;99.90;;;;;;5052509;28;20405;-55
2021/07/29 03:24:55;;;;;;;8.00;4.40;;;15.20;99.90;;;;;;5051663;28;20396;-55
2021/07/29 03:27:21;;;;;;;8.70;4.40;;;15.20;99.90;;;;;;5051285;28;20393;-55
2021/07/29 03:29:46;;;;;;;10.25;4.80;;;15.30;99.90;;;;;;5051581;28;20428;-55
2021/07/29 03:32:12;;;;;;;8.10;4.40;;;15.20;99.90;;;;;;5052215;28;20389;-55
2021/07/29 03:34:38;;;;;;;8.37;4.47;;;15.20;99.90;;;;;;5052399;28;20389;-56
2021/07/29 03:37:03;;;;;;;11.50;5.13;;;15.20;99.90;;;;;;5051410;28;20435;-55
2021/07/29 03:39:29;;;;;;;8.13;5.00;;;15.30;99.90;;;;;;5052291;28;21182;-55
2021/07/29 03:41:55;;;;;;;10.33;4.83;;;15.30;99.90;;;;;;5045601;28;20525;-55
2021/07/29 03:44:20;;;;;;;11.07;5.38;;;15.30;99.90;;;;;;5052122;28;20395;-55
2021/07/29 03:46:46;;;;;;;13.40;5.80;;;15.30;99.90;;;;;;5037599;28;20410;-55
2021/07/29 03:49:12;;;;;;;9.85;5.18;;;15.30;99.90;;;;;;5031658;28;20991;-55
2021/07/29 03:51:37;;;;;;;10.07;5.47;;;15.30;99.90;;;;;;5051638;28;20404;-56
2021/07/29 03:54:03;;;;;;;10.83;5.60;;;15.30;99.90;;;;;;5041282;28;20471;-55
2021/07/29 03:56:28;;;;;;;10.15;5.10;;;15.20;99.90;;;;;;5031035;28;20418;-55
2021/07/29 03:58:56;;;;;;;11.57;5.10;;;15.10;99.90;;;;;;5031009;28;20407;-55
2021/07/29 04:01:23;;;;;;;10.60;5.53;;;15.20;99.90;;;;;;5031517;28;20383;-55
2021/07/29 04:03:48;;;;;;;9.70;5.27;;;15.20;99.90;;;;;;5030634;28;20942;-54
2021/07/29 04:06:17;;;;;;;10.68;5.30;;;15.20;99.90;;;;;;5038590;28;20407;-58
2021/07/29 04:08:43;;;;;;;9.88;5.55;;;15.30;99.90;;;;;;5031343;28;20394;-54
2021/07/29 04:11:09;;;;;;;10.70;5.10;;;15.30;99.90;;;;;;5040434;28;20467;-56
2021/07/29 04:13:34;;;;;;;8.93;4.90;;;15.30;99.90;;;;;;5030552;28;20498;-55
2021/07/29 04:16:01;;;;;;;10.25;5.13;;;15.30;99.90;;;;;;5029196;28;20410;-55
2021/07/29 04:18:27;;;;;;;10.65;5.72;;;15.40;99.90;;;;;;5031139;28;20411;-56
2021/07/29 04:20:53;;;;;;;9.30;4.88;;;15.40;99.90;;;;;;5030067;28;20645;-56
2021/07/29 04:23:18;;;;;;;13.03;5.30;;;15.40;99.90;;;;;;5037044;28;20924;-56
2021/07/29 04:25:44;;;;;;;9.00;5.60;;;15.40;99.90;;;;;;5030247;28;20422;-55
2021/07/29 04:28:10;;;;;;;11.40;5.60;;;15.50;99.90;;;;;;5028978;28;20399;-56
2021/07/29 04:30:35;;;;;;;11.10;5.00;;;15.60;99.90;;;;;;5030488;28;20391;-55
2021/07/29 04:33:01;;;;;;;12.45;5.70;;;15.60;99.90;;;;;;5029751;28;20414;-56
2021/07/29 04:35:26;;;;;;;11.27;5.30;;;15.70;99.90;;;;;;5030104;28;20504;-56
2021/07/29 04:37:52;;;;;;;9.40;5.40;;;15.70;99.90;;;;;;5029845;28;20416;-56
2021/07/29 04:40:19;;;;;;;10.07;4.95;;;15.80;99.90;;;;;;5030212;28;20420;-56
2021/07/29 04:42:44;;;;;;;8.43;4.93;;;15.80;99.90;;;;;;5039481;28;20432;-55
2021/07/29 04:45:11;;;;;;;10.07;4.70;;;15.90;99.90;;;;;;5041126;28;20406;-57
2021/07/29 04:47:36;;;;;;;11.65;5.45;;;16.00;99.90;;;;;;5031034;28;20877;-56
2021/07/29 04:50:02;;;;;;;10.20;5.10;;;16.00;99.90;;;;;;5029765;28;20509;-56
2021/07/29 04:52:28;;;;;;;8.65;4.90;;;16.10;99.90;;;;;;5030897;28;20913;-56
2021/07/29 04:54:53;;;;;;;10.17;5.17;;;16.10;99.90;;;;;;5029488;28;20530;-56
2021/07/29 04:57:19;;;;;;;9.93;5.20;;;16.20;99.90;;;;;;5030450;28;20780;-56
2021/07/29 04:59:44;;;;;;;9.45;4.68;;;16.30;99.90;;;;;;5030188;28;20415;-55
2021/07/29 05:02:10;;;;;;;9.38;4.80;;;16.50;99.90;;;;;;5036436;28;20439;-56
2021/07/29 05:04:36;;;;;;;8.37;4.40;;;16.70;99.90;;;;;;5029379;28;20403;-56
2021/07/29 05:07:02;;;;;;;8.20;4.40;;;17.00;99.90;;;;;;5029841;28;20490;-56
2021/07/29 05:09:27;;;;;;;11.70;4.60;;;17.40;99.90;;;;;;5030508;28;20387;-54
2021/07/29 05:11:53;;;;;;;11.40;5.20;;;17.90;99.90;;;;;;5029129;28;20387;-55
2021/07/29 05:14:18;;;;;;;9.32;4.47;;;19.00;99.90;;;;;;5045925;28;20408;-55
2021/07/29 05:16:44;;;;;;;7.55;4.10;;;20.10;99.90;;;;;;5029885;28;20411;-54
2021/07/29 05:19:10;;;;;;;9.25;4.55;;;21.00;99.90;;;;;;5048408;28;20875;-55
2021/07/29 05:21:35;;;;;;;9.57;4.43;;;21.50;99.90;;;;;;5050401;28;20724;-55
2021/07/29 05:24:04;;;;;;;7.43;3.87;;;21.90;99.90;;;;;;5049484;28;20400;-55
2021/07/29 05:26:30;;;;;;;7.90;3.90;;;22.60;99.90;;;;;;5050107;28;20493;-56
2021/07/29 05:28:55;;;;;;;7.78;3.58;;;22.50;99.90;;;;;;5048197;28;20464;-56
2021/07/29 05:31:21;;;;;;;11.10;3.90;;;21.90;99.90;;;;;;5049653;28;20747;-56
2021/07/29 05:33:46;;;;;;;7.07;3.38;;;21.50;99.90;;;;;;5049349;28;20435;-55
2021/07/29 05:36:12;;;;;;;7.68;3.80;;;21.60;99.90;;;;;;5050022;28;20397;-56
2021/07/29 05:38:38;;;;;;;6.80;3.50;;;21.20;99.90;;;;;;5050047;28;20393;-56
2021/07/29 05:41:04;;;;;;;8.43;3.93;;;21.50;99.90;;;;;;5049244;28;20378;-56
2021/07/29 05:43:31;;;;;;;6.93;3.53;;;22.00;99.90;;;;;;5050113;28;20460;-56
2021/07/29 05:45:56;;;;;;;8.50;3.80;;;21.90;99.90;;;;;;5048435;28;20403;-56
2021/07/29 05:48:22;;;;;;;8.35;3.85;;;22.10;99.90;;;;;;5049615;28;20374;-55
2021/07/29 05:50:48;;;;;;;7.00;3.47;;;22.90;99.90;;;;;;5042658;28;20457;-56
2021/07/29 05:53:13;;;;;;;8.27;4.00;;;22.80;99.90;;;;;;5049067;28;20416;-56
2021/07/29 05:55:41;;;;;;;7.57;3.40;;;22.40;99.90;;;;;;5048999;28;20416;-55
2021/07/29 05:58:07;;;;;;;9.00;3.28;;;21.80;99.90;;;;;;5048677;28;20942;-56
2021/07/29 06:00:32;;;;;;;8.48;3.30;;;21.50;99.90;;;;;;5049572;28;20397;-55
2021/07/29 06:02:59;;;;;;;6.80;3.70;;;21.10;99.90;;;;;;5048701;28;20384;-55
2021/07/29 06:05:25;;;;;;;6.53;3.60;;;21.10;99.90;;;;;;5049032;28;20394;-56
2021/07/29 06:07:51;;;;;;;7.13;3.50;;;21.20;99.90;;;;;;5048100;28;20397;-55
2021/07/29 06:10:16;;;;;;;8.00;3.35;;;21.00;99.90;;;;;;5049135;28;20389;-55
2021/07/29 06:12:42;;;;;;;8.25;3.83;;;21.00;99.90;;;;;;5049621;28;20851;-55
2021/07/29 06:15:08;;;;;;;8.07;3.40;;;21.00;99.90;;;;;;5048326;28;20404;-55
2021/07/29 06:17:36;;;;;;;8.50;3.60;;;21.20;99.90;;;;;;5048862;28;20392;-56
2021/07/29 06:20:05;;;;;;;8.73;3.20;;;21.10;99.90;;;;;;5047745;28;20854;-55
2021/07/29 06:22:32;;;;;;;7.40;3.88;;;21.10;99.90;;;;;;5054545;28;20491;-57
2021/07/29 06:24:58;;;;;;;7.03;3.35;;;21.20;99.90;;;;;;5057958;28;20472;-56
2021/07/29 06:27:24;;;;;;;9.07;3.10;;;21.20;99.90;;;;;;5057766;28;20452;-57
2021/07/29 06:29:50;;;;;;;22.30;4.60;;;21.10;99.90;;;;;;5059742;28;20838;-56
2021/07/29 06:32:15;;;;;;;10.63;3.10;;;21.30;99.90;;;;;;5057860;28;20431;-57
2021/07/29 06:34:41;;;;;;;8.00;3.43;;;21.70;99.90;;;;;;5058791;28;20414;-57
2021/07/29 06:37:07;;;;;;;7.33;3.30;;;22.30;99.90;;;;;;5058519;28;20447;-57
2021/07/29 06:39:33;;;;;;;7.57;3.15;;;22.60;99.90;;;;;;5057422;28;20428;-56
2021/07/29 06:41:59;;;;;;;7.00;3.33;;;23.30;99.90;;;;;;5058392;28;20859;-56
2021/07/29 06:44:25;;;;;;;10.80;3.30;;;24.20;99.90;;;;;;5057030;28;20375;-56
2021/07/29 06:46:50;;;;;;;8.07;3.28;;;25.20;99.90;;;;;;5058690;28;20871;-56
2021/07/29 06:49:16;;;;;;;5.90;3.10;;;25.90;99.90;;;;;;5059360;28;20383;-57
2021/07/29 06:51:42;;;;;;;7.22;2.97;;;26.10;99.90;;;;;;5058373;28;20777;-58
2021/07/29 06:54:07;;;;;;;7.30;2.97;;;26.40;99.90;;;;;;5058838;28;20403;-57
2021/07/29 06:56:33;;;;;;;6.00;2.57;;;27.00;99.90;;;;;;5089061;28;20440;-56
2021/07/29 06:58:59;;;;;;;6.97;3.10;;;27.50;99.90;;;;;;5056866;28;20397;-56
2021/07/29 07:01:25;;;;;;;7.03;2.90;;;27.70;99.90;;;;;;5057756;28;20379;-57
2021/07/29 07:03:51;;;;;;;6.22;2.60;;;27.50;99.90;;;;;;5058444;28;20402;-56
2021/07/29 07:06:17;;;;;;;8.33;2.73;;;27.70;99.90;;;;;;5064274;28;20412;-57
2021/07/29 07:08:43;;;;;;;6.80;2.63;;;27.50;99.90;;;;;;5068637;28;20376;-57
2021/07/29 07:11:18;;;;;;;6.88;2.70;;;27.30;99.90;;;;;;5053574;28;20855;-57
2021/07/29 07:13:46;;;;;;;6.30;2.83;;;27.50;99.90;;;;;;5061852;28;20507;-57
2021/07/29 07:16:13;;;;;;;6.65;2.67;;;27.90;99.90;;;;;;5057498;28;20448;-57
2021/07/29 07:18:39;;;;;;;8.07;2.80;;;28.30;98.90;;;;;;5062401;28;20392;-57
2021/07/29 07:21:09;;;;;;;6.45;2.70;;;27.00;99.70;;;;;;5067817;28;20383;-56
2021/07/29 07:23:38;;;;;;;6.75;2.78;;;25.70;99.90;;;;;;5068656;28;20395;-57
2021/07/29 07:26:04;;;;;;;6.70;3.10;;;24.90;99.90;;;;;;5059340;28;20396;-57
2021/07/29 07:28:30;;;;;;;6.60;3.20;;;24.10;99.90;;;;;;5056878;28;20389;-57
2021/07/29 07:30:56;;;;;;;7.80;3.28;;;23.70;99.90;;;;;;5059708;28;20399;-57
2021/07/29 07:33:22;;;;;;;6.90;3.50;;;23.30;99.90;;;;;;5061568;28;20380;-58
2021/07/29 07:35:49;;;;;;;7.50;3.20;;;22.90;99.90;;;;;;5062103;28;20875;-56
2021/07/29 07:38:15;;;;;;;6.03;3.13;;;22.80;99.90;;;;;;5060281;28;20385;-57
2021/07/29 07:40:41;;;;;;;6.75;2.80;;;22.50;99.90;;;;;;5060395;28;20387;-57
2021/07/29 07:43:08;;;;;;;7.82;3.33;;;21.80;99.90;;;;;;5060969;28;20447;-57
2021/07/29 07:45:35;;;;;;;7.72;3.22;;;21.40;99.90;;;;;;5060426;28;20381;-57
2021/07/29 07:48:02;;;;;;;6.78;3.42;;;21.30;99.90;;;;;;5057400;28;20397;-57
2021/07/29 07:50:27;;;;;;;10.20;3.17;;;21.70;99.90;;;;;;5062817;28;20473;-57
2021/07/29 07:52:53;;;;;;;6.47;2.60;;;23.00;99.90;;;;;;5058806;28;20425;-55
2021/07/29 07:55:19;;;;;;;6.72;2.95;;;24.10;99.90;;;;;;5066399;28;20435;-56
2021/07/29 07:57:44;;;;;;;7.30;3.00;;;25.20;99.90;;;;;;5071283;28;20466;-56
2021/07/29 08:00:11;;;;;;;6.47;2.80;;;26.40;99.90;;;;;;5053025;28;21035;-57
2021/07/29 08:02:36;;;;;;;6.70;2.75;;;27.60;99.90;;;;;;5051432;28;20859;-58
2021/07/29 08:05:02;;;;;;;7.40;3.92;;;28.30;99.90;;;;;;5060670;28;20415;-57
2021/07/29 08:07:28;;;;;;;7.28;2.92;;;29.20;98.80;;;;;;5059572;28;20918;-57
2021/07/29 08:09:53;;;;;;;8.55;3.20;;;29.30;97.00;;;;;;5060872;28;20423;-57
2021/07/29 08:12:19;;;;;;;6.90;2.85;;;28.70;97.30;;;;;;5060268;28;20377;-57
2021/07/29 08:14:44;;;;;;;7.25;2.95;;;28.00;97.80;;;;;;5060337;28;20415;-57
2021/07/29 08:17:10;;;;;;;9.13;3.20;;;27.60;98.80;;;;;;5060992;28;20396;-57
2021/07/29 08:19:36;;;;;;;6.67;3.30;;;26.60;99.00;;;;;;5060226;28;20739;-56
2021/07/29 08:22:02;;;;;;;10.73;4.13;;;25.40;99.90;;;;;;5059219;28;20795;-56
2021/07/29 08:24:27;;;;;;;8.27;3.40;;;23.90;99.90;;;;;;5061354;28;20392;-56
2021/07/29 08:26:53;;;;;;;8.87;3.67;;;23.10;99.90;;;;;;5059276;28;20393;-55
2021/07/29 08:29:19;;;;;;;6.77;3.17;;;23.00;99.90;;;;;;5060637;28;20425;-56
2021/07/29 08:31:44;;;;;;;7.13;3.10;;;22.60;99.90;;;;;;5061549;28;20792;-57
2021/07/29 08:34:10;;;;;;;6.60;2.90;;;25.90;99.90;;;;;;5058134;28;20859;-57
2021/07/29 08:36:36;;;;;;;6.90;2.97;;;26.40;99.90;;;;;;5060573;28;20415;-56
2021/07/29 08:39:01;;;;;;;6.72;2.70;;;25.90;99.90;;;;;;5059948;28;20724;-56
2021/07/29 08:41:27;;;;;;;8.10;3.00;;;25.40;99.90;;;;;;5061663;28;20847;-56
2021/07/29 08:43:53;;;;;;;9.32;3.20;;;24.90;99.90;;;;;;5058324;28;20374;-56
2021/07/29 08:46:20;;;;;;;7.28;3.30;;;25.00;99.90;;;;;;5060731;28;20380;-56
2021/07/29 08:48:48;;;;;;;7.93;2.78;;;25.40;99.90;;;;;;5059922;28;20910;-56
2021/07/29 08:51:23;;;;;;;6.20;2.85;;;25.10;99.90;;;;;;5058776;28;20513;-56
2021/07/29 08:53:50;;;;;;;8.47;3.10;;;25.70;99.90;;;;;;5058360;28;20416;-56
2021/07/29 08:56:17;;;;;;;7.20;2.85;;;26.10;99.90;;;;;;5057933;28;20620;-57
2021/07/29 08:58:43;;;;;;;7.87;3.30;;;25.80;99.90;;;;;;5059112;28;20421;-56
2021/07/29 09:01:12;;;;;;;9.45;3.20;;;25.60;99.90;;;;;;5057267;28;20851;-57
2021/07/29 09:03:39;;;;;;;8.38;2.92;;;25.80;99.90;;;;;;5068973;28;20541;-57
2021/07/29 09:06:12;;;;;;;7.82;3.30;;;26.10;99.90;;;;;;5069127;28;20398;-57
2021/07/29 09:08:44;;;;;;;7.25;3.50;;;25.80;99.90;;;;;;5064094;28;20862;-56
2021/07/29 09:11:29;;;;;;;6.20;3.10;;;26.10;99.30;;;;;;5056530;28;20417;-58
2021/07/29 09:14:13;;;;;;;6.60;2.90;;;26.30;98.30;;;;;;5057807;28;20389;-57
2021/07/29 09:16:54;;;;;;;8.87;3.13;;;26.80;97.30;;;;;;5059588;28;20452;-58
2021/07/29 09:19:31;;;;;;;6.72;2.83;;;28.30;94.50;;;;;;5058701;28;20406;-60
2021/07/29 09:22:23;;;;;;;8.40;3.30;;;28.40;93.10;;;;;;5058543;28;20392;-56
2021/07/29 09:24:59;;;;;;;6.30;3.03;;;27.40;91.70;;;;;;5052315;28;20399;-58
2021/07/29 09:27:47;;;;;;;9.30;3.20;;;26.80;92.80;;;;;;5033638;28;20387;-57
2021/07/29 09:30:25;;;;;;;6.88;3.40;;;26.40;94.30;;;;;;5052996;28;20389;-56
2021/07/29 09:33:00;;;;;;;7.80;3.33;;;25.20;96.00;;;;;;5051995;28;20392;-56
2021/07/29 09:35:28;;;;;;;8.13;3.50;;;24.70;97.10;;;;;;5046721;28;20444;-56
2021/07/29 09:37:55;;;;;;;6.85;2.80;;;24.90;96.90;;;;;;5056512;28;20401;-56
2021/07/29 09:40:21;;;;;;;7.10;3.00;;;25.90;95.00;;;;;;5057275;28;20736;-57
2021/07/29 09:43:12;;;;;;;8.30;3.30;;;26.50;93.70;;;;;;5058195;28;20394;-58
2021/07/29 09:45:39;;;;;;;9.95;2.90;;;26.80;91.50;;;;;;5045324;28;20567;-58
2021/07/29 09:48:06;;;;;;;6.97;2.90;;;27.90;90.40;;;;;;5055390;28;20385;-59
2021/07/29 09:50:33;;;;;;;7.88;2.97;;;28.50;87.80;;;;;;5054863;28;20428;-57
2021/07/29 09:52:59;;;;;;;7.47;3.37;;;29.40;84.20;;;;;;5055211;28;20733;-58
2021/07/29 09:55:29;;;;;;;7.10;3.28;;;30.10;81.00;;;;;;5058454;28;20685;-58
2021/07/29 09:57:55;;;;;;;6.30;3.10;;;29.40;77.50;;;;;;5065832;28;20440;-56
2021/07/29 10:00:21;;;;;;;6.73;2.93;;;28.30;79.70;;;;;;5045124;28;20501;-57
2021/07/29 10:02:47;;;;;;;6.90;3.00;;;27.60;80.90;;;;;;5056238;28;20384;-57
2021/07/29 10:05:15;;;;;;;7.65;3.30;;;27.90;82.60;;;;;;5062410;28;20728;-57
2021/07/29 10:07:45;;;;;;;6.35;2.97;;;28.50;79.00;;;;;;5068900;28;20419;-57
2021/07/29 10:10:12;;;;;;;6.70;3.30;;;27.40;81.30;;;;;;5067368;28;20417;-56
2021/07/29 10:12:38;;;;;;;6.63;3.05;;;27.80;82.70;;;;;;5060950;28;20388;-58
2021/07/29 10:15:05;;;;;;;6.30;2.63;;;28.70;78.50;;;;;;5065358;28;20868;-57
2021/07/29 10:17:36;;;;;;;7.07;3.47;;;27.70;78.20;;;;;;5058294;28;20399;-57
2021/07/29 10:20:14;;;;;;;7.05;3.13;;;27.10;81.30;;;;;;5058704;28;20446;-59
2021/07/29 10:22:40;;;;;;;6.90;3.40;;;27.70;80.90;;;;;;5055732;28;20423;-58
2021/07/29 10:25:06;;;;;;;7.53;3.47;;;27.20;79.90;;;;;;5058883;28;20522;-58
2021/07/29 10:27:32;;;;;;;8.88;3.55;;;27.40;80.00;;;;;;5058334;28;20882;-58
2021/07/29 10:30:19;;;;;;;7.00;3.85;;;28.40;80.60;;;;;;5057675;28;20380;-58
2021/07/29 10:32:47;;;;;;;9.27;3.30;;;29.00;76.60;;;;;;5056531;28;20395;-58
2021/07/29 10:35:30;;;;;;;6.85;3.35;;;28.20;76.10;;;;;;5055771;28;20401;-57
2021/07/29 10:38:00;;;;;;;8.88;3.90;;;27.20;79.20;;;;;;5058698;28;20475;-57
2021/07/29 10:40:34;;;;;;;7.70;3.33;;;26.50;83.90;;;;;;5059553;28;20385;-57
2021/07/29 10:43:25;;;;;;;7.50;3.40;;;27.00;85.10;;;;;;5047424;28;20912;-56
2021/07/29 10:45:52;;;;;;;7.60;3.50;;;27.50;82.20;;;;;;5071712;28;20411;-56
2021/07/29 10:48:47;;;;;;;9.05;3.78;;;27.20;84.50;;;;;;5063376;28;20416;-56
2021/07/29 10:51:13;;;;;;;7.78;3.20;;;26.90;83.40;;;;;;5057003;28;20396;-57
2021/07/29 10:53:40;;;;;;;7.85;3.30;;;26.70;85.80;;;;;;5054719;28;20416;-57
2021/07/29 10:56:09;;;;;;;7.60;3.30;;;26.80;87.50;;;;;;5057261;28;20407;-57
2021/07/29 10:58:45;;;;;;;11.60;3.40;;;27.20;87.00;;;;;;5056293;28;20416;-57
2021/07/29 11:01:11;;;;;;;6.67;3.13;;;26.90;86.30;;;;;;5056665;28;20398;-57
2021/07/29 11:03:49;;;;;;;9.40;3.60;;;26.60;85.20;;;;;;5057862;28;20569;-57
2021/07/29 11:06:25;;;;;;;7.40;3.90;;;26.60;87.00;;;;;;5050050;28;20893;-58
2021/07/29 11:08:52;;;;;;;7.13;3.30;;;26.70;87.20;;;;;;5052166;28;20397;-57
2021/07/29 11:11:18;;;;;;;8.52;3.70;;;27.20;86.10;;;;;;5057178;28;20853;-57
2021/07/29 11:13:48;;;;;;;9.23;3.57;;;27.50;84.60;;;;;;5060900;28;20476;-57
2021/07/29 11:16:15;;;;;;;7.20;3.50;;;27.30;83.80;;;;;;5060009;28;20412;-57
2021/07/29 11:18:41;;;;;;;7.88;3.30;;;26.70;83.20;;;;;;5061873;28;20538;-56
2021/07/29 11:21:17;;;;;;;7.72;3.20;;;27.00;83.40;;;;;;5061916;28;20385;-57
2021/07/29 11:23:43;;;;;;;6.93;3.30;;;26.80;82.50;;;;;;5060038;28;20475;-57
2021/07/29 11:26:09;;;;;;;7.75;3.70;;;27.00;85.50;;;;;;5059769;28;20392;-58
2021/07/29 11:28:35;;;;;;;8.50;3.90;;;26.70;84.20;;;;;;5057814;28;20390;-57
2021/07/29 11:31:02;;;;;;;7.43;3.22;;;26.40;85.30;;;;;;5059857;28;20916;-56
2021/07/29 11:33:29;;;;;;;6.97;3.72;;;26.60;84.60;;;;;;5060633;28;20509;-57
2021/07/29 11:35:56;;;;;;;7.80;3.50;;;26.30;85.10;;;;;;5062433;28;20442;-57
2021/07/29 11:38:24;;;;;;;7.65;4.07;;;26.80;86.00;;;;;;5060953;28;20396;-57
2021/07/29 11:41:00;;;;;;;7.80;3.53;;;27.30;84.70;;;;;;5060570;28;20389;-58
2021/07/29 11:43:32;;;;;;;7.80;3.60;;;27.60;82.80;;;;;;5060405;28;20892;-57
2021/07/29 11:46:11;;;;;;;6.90;3.40;;;27.50;81.30;;;;;;5059240;28;20409;-57
2021/07/29 11:48:38;;;;;;;7.38;3.60;;;27.20;82.40;;;;;;5059693;28;20396;-57
2021/07/29 11:51:15;;;;;;;7.90;3.50;;;27.10;84.00;;;;;;5059930;28;20416;-58
2021/07/29 11:53:43;;;;;;;8.57;4.28;;;27.10;84.10;;;;;;5057368;28;20413;-58
2021/07/29 11:56:10;;;;;;;8.80;3.30;;;26.80;83.40;;;;;;5059957;28;20407;-57
2021/07/29 14:15:56;;;;;;;7.53;3.90;;;28.10;89.50;;;;;;5115732;27;20431;-65
2021/07/29 14:18:21;;;;;;;7.55;3.20;;;27.00;84.40;;;;;;5103094;28;20964;-67
2021/07/29 14:20:58;;;;;;;6.87;3.33;;;27.30;83.50;;;;;;5094213;28;20873;-66
2021/07/29 14:23:24;;;;;;;7.80;3.00;;;27.30;83.20;;;;;;5099212;28;20413;-66
2021/07/29 14:25:49;;;;;;;6.78;3.40;;;27.20;82.30;;;;;;5090036;28;20431;-67
2021/07/29 14:28:15;;;;;;;6.00;3.10;;;26.90;81.80;;;;;;5099648;28;20378;-67
2021/07/29 14:30:42;;;;;;;7.50;3.30;;;26.60;82.70;;;;;;5104930;28;20523;-67
2021/07/29 14:33:15;;;;;;;9.30;3.60;;;26.50;83.70;;;;;;5103917;28;20378;-68
2021/07/29 14:35:43;;;;;;;8.50;3.40;;;26.80;83.30;;;;;;5097843;28;20390;-68
2021/07/29 14:38:09;;;;;;;8.68;3.70;;;27.00;83.20;;;;;;5101495;28;20387;-63
2021/07/29 14:40:35;;;;;;;7.80;3.45;;;26.90;82.10;;;;;;5104971;28;20743;-68
2021/07/29 14:43:01;;;;;;;7.78;3.50;;;27.00;82.90;;;;;;5101635;28;20484;-67
2021/07/29 14:50:45;;;;;;;6.95;3.50;;;26.80;81.80;;;;;;5097859;28;20500;-66
2021/07/29 14:53:11;;;;;;;7.30;3.58;;;26.60;83.40;;;;;;5098646;28;20400;-64
2021/07/29 16:09:26;;;;;;;7.47;3.47;;;25.70;88.00;;;;;;5106453;28;20410;-67
2021/07/29 16:11:53;;;;;;;9.02;3.45;;;25.80;86.80;;;;;;5103386;28;20404;-67
2021/07/29 16:14:24;;;;;;;7.30;3.00;;;25.70;86.70;;;;;;5106489;28;20534;-65
2021/07/29 16:16:50;;;;;;;6.53;3.27;;;25.70;86.30;;;;;;5108117;27;20461;-67
2021/07/29 16:19:17;;;;;;;8.05;3.30;;;25.40;86.70;;;;;;5099895;28;20429;-64
2021/07/29 16:21:44;;;;;;;7.15;3.42;;;25.30;86.80;;;;;;5099911;28;20393;-68
2021/07/29 16:24:11;;;;;;;9.60;3.00;;;25.30;86.60;;;;;;5097505;28;20404;-67